createdAt,value
2019-04-26T00:00:01.492Z,3.08
2019-04-26T00:00:47.137Z,3.37
2019-04-26T00:01:21.699Z,3.12
2019-04-26T00:02:12.333Z,3.72
2019-04-26T00:02:56.016Z,3.62
2019-04-26T00:03:38.165Z,3.77
2019-04-26T00:04:12.172Z,3.20
2019-04-26T00:04:45.674Z,3.25
2019-04-26T00:05:19.589Z,3.60
2019-04-26T00:05:53.642Z,3.30
2019-04-26T00:06:27.121Z,3.98
2019-04-26T00:07:00.630Z,3.83
2019-04-26T00:07:34.485Z,3.50
2019-04-26T00:08:08.007Z,3.72
2019-04-26T00:08:42.701Z,4.20
2019-04-26T00:09:23.433Z,4.05
2019-04-26T00:09:58.083Z,3.80
2019-04-26T00:10:50.722Z,3.65
2019-04-26T00:11:39.221Z,4.45
2019-04-26T00:12:31.913Z,3.85
2019-04-26T00:13:20.110Z,3.83
2019-04-26T00:14:19.015Z,4.25
2019-04-26T00:15:03.176Z,4.00
2019-04-26T00:15:47.257Z,3.30
2019-04-26T00:16:30.798Z,3.92
2019-04-26T00:17:09.237Z,3.80
2019-04-26T00:17:55.911Z,3.65
2019-04-26T00:18:31.402Z,3.35
2019-04-26T00:19:04.960Z,4.03
2019-04-26T00:19:38.827Z,3.83
2019-04-26T00:20:12.991Z,4.00
2019-04-26T00:20:46.577Z,3.12
2019-04-26T00:21:20.042Z,4.45
2019-04-26T00:21:53.814Z,4.40
2019-04-26T00:22:27.681Z,4.10
2019-04-26T00:23:01.159Z,3.40
2019-04-26T00:23:34.649Z,3.62
2019-04-26T00:24:09.055Z,3.37
2019-04-26T00:24:42.541Z,3.52
2019-04-26T00:25:16.516Z,3.65
2019-04-26T00:25:50.442Z,3.80
2019-04-26T00:26:23.917Z,4.10
2019-04-26T00:26:57.417Z,3.60
2019-04-26T00:27:30.992Z,3.85
2019-04-26T00:28:04.475Z,4.28
2019-04-26T00:28:37.974Z,3.80
2019-04-26T00:29:12.618Z,4.35
2019-04-26T00:29:46.378Z,4.30
2019-04-26T00:30:19.943Z,4.55
2019-04-26T00:30:53.434Z,3.95
2019-04-26T00:31:26.917Z,3.47
2019-04-26T00:32:00.490Z,4.20
2019-04-26T00:32:33.979Z,4.05
2019-04-26T00:33:07.462Z,4.10
2019-04-26T00:33:40.958Z,3.95
2019-04-26T00:34:15.403Z,4.30
2019-04-26T00:34:49.109Z,3.70
2019-04-26T00:35:22.670Z,3.92
2019-04-26T00:35:56.154Z,3.87
2019-04-26T00:36:29.648Z,3.95
2019-04-26T00:37:03.150Z,4.15
2019-04-26T00:37:36.680Z,4.45
2019-04-26T00:38:10.154Z,3.60
2019-04-26T00:38:43.641Z,4.40
2019-04-26T00:39:18.238Z,4.08
2019-04-26T00:39:51.985Z,3.95
2019-04-26T00:40:25.655Z,3.95
2019-04-26T00:40:59.241Z,4.40
2019-04-26T00:41:32.902Z,4.33
2019-04-26T00:42:06.483Z,4.78
2019-04-26T00:42:39.964Z,3.85
2019-04-26T00:43:14.290Z,4.10
2019-04-26T00:43:47.878Z,4.05
2019-04-26T00:44:22.793Z,4.37
2019-04-26T00:44:56.381Z,4.20
2019-04-26T00:45:31.023Z,3.87
2019-04-26T00:46:05.119Z,4.30
2019-04-26T00:46:40.333Z,4.03
2019-04-26T00:47:15.157Z,4.70
2019-04-26T00:47:48.822Z,4.12
2019-04-26T00:48:23.131Z,4.28
2019-04-26T00:48:57.192Z,4.22
2019-04-26T00:49:43.173Z,4.45
2019-04-26T00:50:07.504Z,4.67
2019-04-26T00:50:41.410Z,4.47
2019-04-26T00:51:15.595Z,4.30
2019-04-26T00:51:49.970Z,4.22
2019-04-26T00:52:23.650Z,4.95
2019-04-26T00:52:57.574Z,4.20
2019-04-26T00:53:32.581Z,4.80
2019-04-26T00:54:06.634Z,4.20
2019-04-26T00:54:40.817Z,4.50
2019-04-26T00:55:15.576Z,4.58
2019-04-26T00:55:49.989Z,4.30
2019-04-26T00:56:24.616Z,4.67
2019-04-26T00:56:58.569Z,4.80
2019-04-26T00:57:32.759Z,3.55
2019-04-26T00:58:06.547Z,4.10
2019-04-26T00:58:40.742Z,3.77
2019-04-26T00:59:15.108Z,5.10
2019-04-26T00:59:49.989Z,4.58
2019-04-26T01:00:23.941Z,4.28
2019-04-26T01:00:57.754Z,4.20
2019-04-26T01:01:34.858Z,4.25
2019-04-26T01:02:17.012Z,4.60
2019-04-26T01:02:53.235Z,4.10
2019-04-26T01:03:26.726Z,4.10
2019-04-26T01:04:00.201Z,3.95
2019-04-26T01:04:33.678Z,4.75
2019-04-26T01:05:07.209Z,4.03
2019-04-26T01:05:41.188Z,4.22
2019-04-26T01:06:17.033Z,4.65
2019-04-26T01:06:51.461Z,3.75
2019-04-26T01:07:25.338Z,4.10
2019-04-26T01:07:59.135Z,4.65
2019-04-26T01:08:32.606Z,4.72
2019-04-26T01:09:06.624Z,4.45
2019-04-26T01:09:40.019Z,5.03
2019-04-26T01:10:13.608Z,4.58
2019-04-26T01:10:47.139Z,4.45
2019-04-26T01:11:21.746Z,4.85
2019-04-26T01:11:55.385Z,4.20
2019-04-26T01:12:28.872Z,4.42
2019-04-26T01:13:02.365Z,4.17
2019-04-26T01:13:35.841Z,4.37
2019-04-26T01:14:09.418Z,5.00
2019-04-26T01:14:42.813Z,4.10
2019-04-26T01:15:18.841Z,4.00
2019-04-26T01:15:51.521Z,4.40
2019-04-26T01:16:24.998Z,3.98
2019-04-26T01:16:58.499Z,4.17
2019-04-26T01:17:31.980Z,4.15
2019-04-26T01:18:05.457Z,5.03
2019-04-26T01:18:38.956Z,4.67
2019-04-26T01:19:13.905Z,4.83
2019-04-26T01:19:48.117Z,4.33
2019-04-26T01:20:23.277Z,3.90
2019-04-26T01:20:58.376Z,4.10
2019-04-26T01:21:36.506Z,4.62
2019-04-26T01:22:12.257Z,4.60
2019-04-26T01:22:47.818Z,3.90
2019-04-26T01:23:22.948Z,5.30
2019-04-26T01:23:58.203Z,4.50
2019-04-26T01:24:34.050Z,5.33
2019-04-26T01:25:07.522Z,4.65
2019-04-26T01:25:43.956Z,4.80
2019-04-26T01:26:21.057Z,4.37
2019-04-26T01:26:56.151Z,4.47
2019-04-26T01:27:30.134Z,5.05
2019-04-26T01:28:05.310Z,4.92
2019-04-26T01:28:41.674Z,4.80
2019-04-26T01:29:17.183Z,4.87
2019-04-26T01:29:52.892Z,4.78
2019-04-26T01:30:28.160Z,5.67
2019-04-26T01:31:02.712Z,4.97
2019-04-26T01:31:38.879Z,5.05
2019-04-26T01:32:12.745Z,5.10
2019-04-26T01:32:46.518Z,4.95
2019-04-26T01:33:20.292Z,4.92
2019-04-26T01:33:53.858Z,5.30
2019-04-26T01:34:28.267Z,5.78
2019-04-26T01:35:01.886Z,4.92
2019-04-26T01:35:36.425Z,5.40
2019-04-26T01:36:13.110Z,6.03
2019-04-26T01:36:46.202Z,5.80
2019-04-26T01:37:20.577Z,4.60
2019-04-26T01:37:54.349Z,4.78
2019-04-26T01:38:27.828Z,4.35
2019-04-26T01:39:03.615Z,5.50
2019-04-26T01:39:39.242Z,6.30
2019-04-26T01:40:17.198Z,5.03
2019-04-26T01:40:53.683Z,5.10
2019-04-26T01:41:35.924Z,5.00
2019-04-26T01:42:15.541Z,5.50
2019-04-26T01:43:08.461Z,5.50
2019-04-26T01:43:49.889Z,6.15
2019-04-26T01:44:38.692Z,5.20
2019-04-26T01:45:20.192Z,5.22
2019-04-26T01:46:06.945Z,5.58
2019-04-26T01:46:43.501Z,5.37
2019-04-26T01:47:17.583Z,5.55
2019-04-26T01:47:52.694Z,5.85
2019-04-26T01:48:43.455Z,5.60
2019-04-26T01:49:18.405Z,5.25
2019-04-26T01:49:52.572Z,5.50
2019-04-26T01:50:27.470Z,5.37
2019-04-26T01:51:01.017Z,5.53
2019-04-26T01:51:37.471Z,5.33
2019-04-26T01:52:11.168Z,5.08
2019-04-26T01:52:45.037Z,4.87
2019-04-26T01:53:18.611Z,5.30
2019-04-26T01:53:52.089Z,6.60
2019-04-26T01:54:27.825Z,6.12
2019-04-26T01:55:01.447Z,6.22
2019-04-26T01:55:34.918Z,5.20
2019-04-26T01:56:08.421Z,6.25
2019-04-26T01:56:41.913Z,5.80
2019-04-26T01:57:15.614Z,5.25
2019-04-26T01:57:49.105Z,4.95
2019-04-26T01:58:23.236Z,5.10
2019-04-26T01:58:56.949Z,5.15
2019-04-26T01:59:31.480Z,5.40
2019-04-26T02:00:19.172Z,5.20
2019-04-26T02:01:00.895Z,6.35
2019-04-26T02:01:53.593Z,5.72
2019-04-26T02:02:55.305Z,5.58
2019-04-26T02:03:29.864Z,5.08
2019-04-26T02:04:03.578Z,5.30
2019-04-26T02:04:38.804Z,5.62
2019-04-26T02:05:16.688Z,6.15
2019-04-26T02:05:50.534Z,5.80
2019-04-26T02:06:28.833Z,5.70
2019-04-26T02:06:59.339Z,5.42
2019-04-26T02:07:38.922Z,5.45
2019-04-26T02:08:12.403Z,5.80
2019-04-26T02:08:45.888Z,5.67
2019-04-26T02:09:19.769Z,5.75
2019-04-26T02:09:53.394Z,5.60
2019-04-26T02:10:27.188Z,6.35
2019-04-26T02:11:00.658Z,5.20
2019-04-26T02:11:34.235Z,6.28
2019-04-26T02:12:07.911Z,6.05
2019-04-26T02:12:42.881Z,5.47
2019-04-26T02:13:16.554Z,5.70
2019-04-26T02:13:50.040Z,6.15
2019-04-26T02:14:24.274Z,5.35
2019-04-26T02:14:58.921Z,6.08
2019-04-26T02:15:33.497Z,6.80
2019-04-26T02:16:07.226Z,6.12
2019-04-26T02:16:41.131Z,6.12
2019-04-26T02:17:14.623Z,5.97
2019-04-26T02:17:48.481Z,6.30
2019-04-26T02:18:23.917Z,6.10
2019-04-26T02:18:57.169Z,6.05
2019-04-26T02:19:31.590Z,6.50
2019-04-26T02:20:05.863Z,5.50
2019-04-26T02:20:55.073Z,6.85
2019-04-26T02:21:34.831Z,6.97
2019-04-26T02:22:36.327Z,7.40
2019-04-26T02:23:17.178Z,7.08
2019-04-26T02:24:14.570Z,6.95
2019-04-26T02:24:49.013Z,6.10
2019-04-26T02:25:22.487Z,6.53
2019-04-26T02:25:55.965Z,6.70
2019-04-26T02:26:36.333Z,6.83
2019-04-26T02:27:37.831Z,5.62
2019-04-26T02:28:11.339Z,6.75
2019-04-26T02:28:44.830Z,5.70
2019-04-26T02:29:20.133Z,6.12
2019-04-26T02:29:53.718Z,6.33
2019-04-26T02:30:28.738Z,5.83
2019-04-26T02:31:02.399Z,6.53
2019-04-26T02:31:37.773Z,6.58
2019-04-26T02:32:11.567Z,6.50
2019-04-26T02:32:44.973Z,7.25
2019-04-26T02:33:18.479Z,6.60
2019-04-26T02:33:52.267Z,6.15
2019-04-26T02:34:27.944Z,5.87
2019-04-26T02:35:02.022Z,6.60
2019-04-26T02:35:35.919Z,6.42
2019-04-26T02:36:09.454Z,6.40
2019-04-26T02:36:57.387Z,6.90
2019-04-26T02:37:18.775Z,6.87
2019-04-26T02:37:52.278Z,6.97
2019-04-26T02:38:27.457Z,7.03
2019-04-26T02:39:02.839Z,6.45
2019-04-26T02:39:38.202Z,7.42
2019-04-26T02:40:13.587Z,6.72
2019-04-26T02:40:47.406Z,6.17
2019-04-26T02:41:21.100Z,7.08
2019-04-26T02:41:56.570Z,6.15
2019-04-26T02:42:48.318Z,6.45
2019-04-26T02:43:23.269Z,7.72
2019-04-26T02:43:58.233Z,6.12
2019-04-26T02:44:48.163Z,7.05
2019-04-26T02:45:56.040Z,6.85
2019-04-26T02:46:38.958Z,6.50
2019-04-26T02:47:49.517Z,7.00
2019-04-26T02:48:37.854Z,6.12
2019-04-26T02:49:22.582Z,6.30
2019-04-26T02:49:57.951Z,6.85
2019-04-26T02:50:38.296Z,6.92
2019-04-26T02:51:14.962Z,6.95
2019-04-26T02:51:52.636Z,7.30
2019-04-26T02:52:43.272Z,7.30
2019-04-26T02:53:38.975Z,7.40
2019-04-26T02:54:15.902Z,6.83
2019-04-26T02:54:53.061Z,6.92
2019-04-26T02:55:47.971Z,7.20
2019-04-26T02:56:24.408Z,6.92
2019-04-26T02:56:59.371Z,6.90
2019-04-26T02:57:49.210Z,7.60
2019-04-26T02:58:24.163Z,7.95
2019-04-26T02:59:20.135Z,7.20
2019-04-26T02:59:57.655Z,7.72
2019-04-26T03:00:32.182Z,7.25
2019-04-26T03:01:06.810Z,7.22
2019-04-26T03:01:40.789Z,6.80
2019-04-26T03:02:24.033Z,7.10
2019-04-26T03:03:00.945Z,7.00
2019-04-26T03:03:35.768Z,7.17
2019-04-26T03:04:09.649Z,7.28
2019-04-26T03:04:44.599Z,6.97
2019-04-26T03:05:19.092Z,7.00
2019-04-26T03:05:53.396Z,8.00
2019-04-26T03:06:30.054Z,7.30
2019-04-26T03:07:04.842Z,7.20
2019-04-26T03:07:56.368Z,8.05
2019-04-26T03:08:31.870Z,7.70
2019-04-26T03:09:07.431Z,7.83
2019-04-26T03:09:43.247Z,7.70
2019-04-26T03:10:17.082Z,7.45
2019-04-26T03:10:53.795Z,7.75
2019-04-26T03:11:28.768Z,7.67
2019-04-26T03:12:21.380Z,8.08
2019-04-26T03:12:56.455Z,7.05
2019-04-26T03:13:50.628Z,8.10
2019-04-26T03:14:42.850Z,6.97
2019-04-26T03:15:24.908Z,7.80
2019-04-26T03:16:16.319Z,7.15
2019-04-26T03:17:16.262Z,7.50
2019-04-26T03:18:10.558Z,7.33
2019-04-26T03:19:09.550Z,7.50
2019-04-26T03:19:51.410Z,7.25
2019-04-26T03:20:29.089Z,7.90
2019-04-26T03:21:04.842Z,8.93
2019-04-26T03:21:43.330Z,8.20
2019-04-26T03:22:24.185Z,8.05
2019-04-26T03:23:06.201Z,7.78
2019-04-26T03:23:56.989Z,7.15
2019-04-26T03:24:22.217Z,8.23
2019-04-26T03:25:06.398Z,7.85
2019-04-26T03:25:49.110Z,7.50
2019-04-26T03:26:26.991Z,7.05
2019-04-26T03:27:11.419Z,7.42
2019-04-26T03:28:05.414Z,7.62
2019-04-26T03:28:52.997Z,7.20
2019-04-26T03:29:32.929Z,7.50
2019-04-26T03:30:22.152Z,7.50
2019-04-26T03:31:08.906Z,7.97
2019-04-26T03:31:53.560Z,7.53
2019-04-26T03:32:26.811Z,7.85
2019-04-26T03:33:06.803Z,8.55
2019-04-26T03:34:00.124Z,7.97
2019-04-26T03:34:46.530Z,8.20
2019-04-26T03:35:57.770Z,8.33
2019-04-26T03:36:48.607Z,7.85
2019-04-26T03:37:37.952Z,8.43
2019-04-26T03:38:26.077Z,7.20
2019-04-26T03:39:10.660Z,8.25
2019-04-26T03:39:55.388Z,7.25
2019-04-26T03:40:41.053Z,7.50
2019-04-26T03:41:19.606Z,8.20
2019-04-26T03:42:08.157Z,8.23
2019-04-26T03:43:04.973Z,7.75
2019-04-26T03:43:48.815Z,8.00
2019-04-26T03:44:29.522Z,8.00
2019-04-26T03:45:07.955Z,8.00
2019-04-26T03:45:48.097Z,8.85
2019-04-26T03:46:27.830Z,8.25
2019-04-26T03:47:02.787Z,7.78
2019-04-26T03:47:40.099Z,8.15
2019-04-26T03:48:27.289Z,7.92
2019-04-26T03:49:04.612Z,7.97
2019-04-26T03:49:55.792Z,9.23
2019-04-26T03:50:36.020Z,7.70
2019-04-26T03:51:13.725Z,8.60
2019-04-26T03:51:53.676Z,8.33
2019-04-26T03:52:52.349Z,8.25
2019-04-26T03:53:45.865Z,7.95
2019-04-26T03:54:21.346Z,8.90
2019-04-26T03:54:56.321Z,8.55
2019-04-26T03:55:54.987Z,8.43
2019-04-26T03:56:49.053Z,8.23
2019-04-26T03:57:36.906Z,8.25
2019-04-26T03:58:14.015Z,9.13
2019-04-26T03:59:02.010Z,8.35
2019-04-26T03:59:51.384Z,8.63
2019-04-26T04:00:51.308Z,8.10
2019-04-26T04:01:25.829Z,8.50
2019-04-26T04:02:30.010Z,8.30
2019-04-26T04:03:28.364Z,7.85
2019-04-26T04:04:21.097Z,8.55
2019-04-26T04:05:13.216Z,8.03
2019-04-26T04:05:48.368Z,9.23
2019-04-26T04:06:26.979Z,8.25
2019-04-26T04:07:04.676Z,8.58
2019-04-26T04:07:45.185Z,8.43
2019-04-26T04:08:14.802Z,8.33
2019-04-26T04:08:50.965Z,7.90
2019-04-26T04:09:25.997Z,8.13
2019-04-26T04:10:04.419Z,9.08
2019-04-26T04:10:46.005Z,7.90
2019-04-26T04:11:21.628Z,9.03
2019-04-26T04:12:11.280Z,8.10
2019-04-26T04:12:43.715Z,8.20
2019-04-26T04:13:38.848Z,8.05
2019-04-26T04:14:21.114Z,8.00
2019-04-26T04:14:58.754Z,8.88
2019-04-26T04:15:38.582Z,8.20
2019-04-26T04:16:43.623Z,8.50
2019-04-26T04:17:34.578Z,8.08
2019-04-26T04:18:11.864Z,7.55
2019-04-26T04:18:47.873Z,8.15
2019-04-26T04:19:57.205Z,8.20
2019-04-26T04:20:53.780Z,8.55
2019-04-26T04:21:57.065Z,8.90
2019-04-26T04:22:33.362Z,8.43
2019-04-26T04:23:18.766Z,8.63
2019-04-26T04:24:12.759Z,8.13
2019-04-26T04:24:52.164Z,8.45
2019-04-26T04:25:30.360Z,8.50
2019-04-26T04:26:05.918Z,10.15
2019-04-26T04:26:54.835Z,9.15
2019-04-26T04:27:32.470Z,9.00
2019-04-26T04:28:11.962Z,8.05
2019-04-26T04:28:59.454Z,9.00
2019-04-26T04:29:42.880Z,9.58
2019-04-26T04:30:21.893Z,8.60
2019-04-26T04:30:59.531Z,9.10
2019-04-26T04:31:34.610Z,8.45
2019-04-26T04:32:12.685Z,8.73
2019-04-26T04:33:03.918Z,8.30
2019-04-26T04:33:45.235Z,8.90
2019-04-26T04:34:22.735Z,9.55
2019-04-26T04:34:57.709Z,9.10
2019-04-26T04:35:33.379Z,9.28
2019-04-26T04:36:10.778Z,8.80
2019-04-26T04:36:50.573Z,9.18
2019-04-26T04:37:23.455Z,9.13
2019-04-26T04:38:08.651Z,9.43
2019-04-26T04:38:53.501Z,9.38
2019-04-26T04:39:56.562Z,7.00
2019-04-26T04:40:45.053Z,9.25
2019-04-26T04:41:26.732Z,9.20
2019-04-26T04:42:24.520Z,8.60
2019-04-26T04:43:15.979Z,8.18
2019-04-26T04:43:59.772Z,9.20
2019-04-26T04:45:00.101Z,8.60
2019-04-26T04:46:02.773Z,8.13
2019-04-26T04:47:00.699Z,9.88
2019-04-26T04:47:47.212Z,10.25
2019-04-26T04:48:29.713Z,9.43
2019-04-26T04:49:17.459Z,9.20
2019-04-26T04:50:01.028Z,9.10
2019-04-26T04:50:44.798Z,9.55
2019-04-26T04:51:44.195Z,9.45
2019-04-26T04:52:28.502Z,9.08
2019-04-26T04:53:19.693Z,18.57
2019-04-26T04:54:00.553Z,10.58
2019-04-26T04:54:39.491Z,18.50
2019-04-26T04:55:15.082Z,11.50
2019-04-26T04:55:55.031Z,9.38
2019-04-26T04:56:56.383Z,21.05
2019-04-26T04:57:50.185Z,9.85
2019-04-26T04:58:28.154Z,11.48
2019-04-26T04:59:03.130Z,10.15
2019-04-26T04:59:46.052Z,9.35
2019-04-26T05:00:49.257Z,12.75
2019-04-26T05:01:35.580Z,9.40
2019-04-26T05:02:25.189Z,10.10
2019-04-26T05:03:06.166Z,19.32
2019-04-26T05:03:44.089Z,12.65
2019-04-26T05:04:25.452Z,12.15
2019-04-26T05:05:30.681Z,12.23
2019-04-26T05:06:18.964Z,9.73
2019-04-26T05:07:03.602Z,9.25
2019-04-26T05:07:43.870Z,9.15
2019-04-26T05:08:20.380Z,8.68
2019-04-26T05:09:05.793Z,8.88
2019-04-26T05:09:43.875Z,9.60
2019-04-26T05:10:18.416Z,9.95
2019-04-26T05:11:04.375Z,10.23
2019-04-26T05:11:47.684Z,9.35
2019-04-26T05:12:27.082Z,10.05
2019-04-26T05:13:25.469Z,10.58
2019-04-26T05:14:05.511Z,9.88
2019-04-26T05:15:13.052Z,9.30
2019-04-26T05:16:10.185Z,9.55
2019-04-26T05:16:54.648Z,9.40
2019-04-26T05:17:41.921Z,9.08
2019-04-26T05:18:17.930Z,9.75
2019-04-26T05:19:25.346Z,9.43
2019-04-26T05:20:06.470Z,10.72
2019-04-26T05:20:55.410Z,9.10
2019-04-26T05:21:57.290Z,10.28
2019-04-26T05:22:43.038Z,10.40
2019-04-26T05:23:46.125Z,10.38
2019-04-26T05:24:33.710Z,9.00
2019-04-26T05:25:40.197Z,9.85
2019-04-26T05:26:36.609Z,9.88
2019-04-26T05:27:37.186Z,9.48
2019-04-26T05:28:17.894Z,10.63
2019-04-26T05:28:58.242Z,10.72
2019-04-26T05:29:46.452Z,9.90
2019-04-26T05:30:42.802Z,9.55
2019-04-26T05:31:30.135Z,9.73
2019-04-26T05:32:12.446Z,11.22
2019-04-26T05:32:50.645Z,10.53
2019-04-26T05:33:33.236Z,8.83
2019-04-26T05:34:37.991Z,9.83
2019-04-26T05:35:15.381Z,9.50
2019-04-26T05:35:55.235Z,9.78
2019-04-26T05:37:05.981Z,9.88
2019-04-26T05:37:44.333Z,11.35
2019-04-26T05:38:37.001Z,10.23
2019-04-26T05:39:19.862Z,10.35
2019-04-26T05:39:58.604Z,10.05
2019-04-26T05:40:59.602Z,11.40
2019-04-26T05:41:40.367Z,9.93
2019-04-26T05:42:42.107Z,10.60
2019-04-26T05:43:47.438Z,10.03
2019-04-26T05:44:31.487Z,9.63
2019-04-26T05:45:22.823Z,9.88
2019-04-26T05:46:05.848Z,10.40
2019-04-26T05:46:53.846Z,10.25
2019-04-26T05:47:45.925Z,10.38
2019-04-26T05:48:39.954Z,9.65
2019-04-26T05:49:53.743Z,10.78
2019-04-26T05:51:02.439Z,9.88
2019-04-26T05:51:55.689Z,9.28
2019-04-26T05:52:50.283Z,9.85
2019-04-26T05:54:01.437Z,9.40
2019-04-26T05:55:05.380Z,10.35
2019-04-26T05:56:05.783Z,9.98
2019-04-26T05:56:54.398Z,10.00
2019-04-26T05:57:35.625Z,10.43
2019-04-26T05:58:25.173Z,10.53
2019-04-26T05:59:10.234Z,10.65
2019-04-26T05:59:51.819Z,10.28
2019-04-26T06:01:01.959Z,10.60
2019-04-26T06:02:11.272Z,10.05
2019-04-26T06:03:05.978Z,9.95
2019-04-26T06:04:16.674Z,9.40
2019-04-26T06:05:37.230Z,10.00
2019-04-26T06:06:28.045Z,9.75
2019-04-26T06:07:08.133Z,9.83
2019-04-26T06:07:54.207Z,9.75
2019-04-26T06:08:49.658Z,10.38
2019-04-26T06:10:04.213Z,10.30
2019-04-26T06:11:04.284Z,9.35
2019-04-26T06:11:41.699Z,10.88
2019-04-26T06:12:23.529Z,9.53
2019-04-26T06:13:06.332Z,9.88
2019-04-26T06:13:53.677Z,10.23
2019-04-26T06:14:39.870Z,9.73
2019-04-26T06:15:43.397Z,10.32
2019-04-26T06:16:27.301Z,10.23
2019-04-26T06:17:18.801Z,10.30
2019-04-26T06:18:22.555Z,9.50
2019-04-26T06:19:20.847Z,10.40
2019-04-26T06:20:22.922Z,8.80
2019-04-26T06:20:52.883Z,10.30
2019-04-26T06:21:47.030Z,9.05
2019-04-26T06:22:27.625Z,10.30
2019-04-26T06:23:08.658Z,8.55
2019-04-26T06:24:06.864Z,8.60
2019-04-26T06:24:56.099Z,9.08
2019-04-26T06:25:59.425Z,9.13
2019-04-26T06:27:10.317Z,9.73
2019-04-26T06:27:51.940Z,9.60
2019-04-26T06:28:43.624Z,9.05
2019-04-26T06:29:20.874Z,9.98
2019-04-26T06:30:13.090Z,11.15
2019-04-26T06:30:48.377Z,9.65
2019-04-26T06:31:26.955Z,10.40
2019-04-26T06:32:05.738Z,11.22
2019-04-26T06:32:56.216Z,11.05
2019-04-26T06:33:28.281Z,10.85
2019-04-26T06:34:09.897Z,10.13
2019-04-26T06:34:51.033Z,10.55
2019-04-26T06:35:24.960Z,10.55
2019-04-26T06:36:00.039Z,11.15
2019-04-26T06:36:43.255Z,9.65
2019-04-26T06:37:40.780Z,9.80
2019-04-26T06:38:55.973Z,9.70
2019-04-26T06:39:37.889Z,9.83
2019-04-26T06:40:14.406Z,9.80
2019-04-26T06:41:05.732Z,10.38
2019-04-26T06:42:03.567Z,10.58
2019-04-26T06:42:45.510Z,11.12
2019-04-26T06:43:33.577Z,10.95
2019-04-26T06:44:10.366Z,10.80
2019-04-26T06:44:56.315Z,10.13
2019-04-26T06:45:45.865Z,10.40
2019-04-26T06:47:09.825Z,10.68
2019-04-26T06:47:51.448Z,9.35
2019-04-26T06:48:39.130Z,10.08
2019-04-26T06:49:23.581Z,10.93
2019-04-26T06:50:11.954Z,11.75
2019-04-26T06:50:49.399Z,9.40
2019-04-26T06:51:26.045Z,10.63
2019-04-26T06:52:02.702Z,10.98
2019-04-26T06:52:38.038Z,11.30
2019-04-26T06:53:29.634Z,11.83
2019-04-26T06:54:07.143Z,10.53
2019-04-26T06:54:45.727Z,9.75
2019-04-26T06:55:27.392Z,10.13
2019-04-26T06:56:16.009Z,11.08
2019-04-26T06:56:57.441Z,9.80
2019-04-26T06:58:16.316Z,9.55
2019-04-26T06:59:17.880Z,8.78
2019-04-26T07:00:15.972Z,9.63
2019-04-26T07:01:08.474Z,9.65
2019-04-26T07:01:57.557Z,9.85
2019-04-26T07:02:35.943Z,9.23
2019-04-26T07:03:31.451Z,8.85
2019-04-26T07:04:10.081Z,10.20
2019-04-26T07:04:55.037Z,9.80
2019-04-26T07:05:30.314Z,11.12
2019-04-26T07:06:06.591Z,9.25
2019-04-26T07:06:44.389Z,10.78
2019-04-26T07:07:42.938Z,9.00
2019-04-26T07:08:22.898Z,9.08
2019-04-26T07:09:01.198Z,10.32
2019-04-26T07:09:39.063Z,9.38
2019-04-26T07:10:16.956Z,10.08
2019-04-26T07:11:22.966Z,10.60
2019-04-26T07:12:25.471Z,9.23
2019-04-26T07:13:24.149Z,9.00
2019-04-26T07:14:08.628Z,9.15
2019-04-26T07:15:00.997Z,9.13
2019-04-26T07:15:42.806Z,9.05
2019-04-26T07:16:23.166Z,8.70
2019-04-26T07:17:05.003Z,10.45
2019-04-26T07:17:42.169Z,9.75
2019-04-26T07:18:21.331Z,9.55
2019-04-26T07:19:05.535Z,9.55
2019-04-26T07:20:03.242Z,9.13
2019-04-26T07:20:50.913Z,9.73
2019-04-26T07:21:35.971Z,10.32
2019-04-26T07:22:35.608Z,9.18
2019-04-26T07:23:50.293Z,8.83
2019-04-26T07:24:43.203Z,9.60
2019-04-26T07:25:29.402Z,9.25
2019-04-26T07:26:22.029Z,8.93
2019-04-26T07:27:17.102Z,9.20
2019-04-26T07:28:03.705Z,8.43
2019-04-26T07:28:46.935Z,8.70
2019-04-26T07:29:40.527Z,9.38
2019-04-26T07:30:39.009Z,9.38
2019-04-26T07:31:14.269Z,9.05
2019-04-26T07:31:52.346Z,8.05
2019-04-26T07:32:50.647Z,9.95
2019-04-26T07:33:50.401Z,9.13
2019-04-26T07:34:37.202Z,9.10
2019-04-26T07:35:15.794Z,9.30
2019-04-26T07:35:58.793Z,8.78
2019-04-26T07:36:39.152Z,9.28
2019-04-26T07:37:37.599Z,8.60
2019-04-26T07:38:26.524Z,8.38
2019-04-26T07:39:20.783Z,9.70
2019-04-26T07:40:17.166Z,9.18
2019-04-26T07:41:28.287Z,8.98
2019-04-26T07:42:37.359Z,8.90
2019-04-26T07:43:28.978Z,9.10
2019-04-26T07:44:18.590Z,8.20
2019-04-26T07:45:01.955Z,8.75
2019-04-26T07:45:50.883Z,8.45
2019-04-26T07:46:58.743Z,8.33
2019-04-26T07:47:43.332Z,8.33
2019-04-26T07:48:54.169Z,8.98
2019-04-26T07:50:03.582Z,8.68
2019-04-26T07:50:55.021Z,9.20
2019-04-26T07:51:47.645Z,9.18
2019-04-26T07:52:38.867Z,9.05
2019-04-26T07:53:34.619Z,8.75
2019-04-26T07:54:39.118Z,7.67
2019-04-26T07:55:26.687Z,8.10
2019-04-26T07:56:14.309Z,8.18
2019-04-26T07:57:06.934Z,8.38
2019-04-26T07:57:56.503Z,8.38
2019-04-26T07:58:43.094Z,8.25
2019-04-26T07:59:23.374Z,8.05
2019-04-26T08:00:10.951Z,8.28
2019-04-26T08:00:51.873Z,8.40
2019-04-26T08:02:09.762Z,7.45
2019-04-26T08:03:02.592Z,7.90
2019-04-26T08:03:45.058Z,8.75
2019-04-26T08:04:20.929Z,8.08
2019-04-26T08:04:58.435Z,8.20
2019-04-26T08:05:44.361Z,8.10
2019-04-26T08:06:24.607Z,8.03
2019-04-26T08:07:01.365Z,8.05
2019-04-26T08:07:38.250Z,8.18
2019-04-26T08:08:13.285Z,9.25
2019-04-26T08:08:51.691Z,8.40
2019-04-26T08:09:27.503Z,8.48
2019-04-26T08:10:07.843Z,9.28
2019-04-26T08:10:42.960Z,8.93
2019-04-26T08:11:19.690Z,8.43
2019-04-26T08:11:54.189Z,8.70
2019-04-26T08:12:30.215Z,7.92
2019-04-26T08:13:06.206Z,7.45
2019-04-26T08:13:45.615Z,8.85
2019-04-26T08:14:23.999Z,9.20
2019-04-26T08:15:21.062Z,8.43
2019-04-26T08:16:27.321Z,8.48
2019-04-26T08:17:30.822Z,8.50
2019-04-26T08:18:11.387Z,8.08
2019-04-26T08:18:53.224Z,8.25
2019-04-26T08:19:38.449Z,8.53
2019-04-26T08:21:02.656Z,8.65
2019-04-26T08:21:42.796Z,8.33
2019-04-26T08:22:21.723Z,7.83
2019-04-26T08:22:54.832Z,7.97
2019-04-26T08:23:41.144Z,8.05
2019-04-26T08:24:28.070Z,7.60
2019-04-26T08:25:03.189Z,7.35
2019-04-26T08:25:38.274Z,8.33
2019-04-26T08:26:13.658Z,7.92
2019-04-26T08:26:50.054Z,7.95
2019-04-26T08:27:25.506Z,8.75
2019-04-26T08:28:00.391Z,8.45
2019-04-26T08:28:35.766Z,8.15
2019-04-26T08:29:10.551Z,8.85
2019-04-26T08:29:45.663Z,7.95
2019-04-26T08:30:22.705Z,8.68
2019-04-26T08:30:56.745Z,7.75
2019-04-26T08:31:31.494Z,8.13
2019-04-26T08:32:09.956Z,7.83
2019-04-26T08:32:46.924Z,8.50
2019-04-26T08:33:24.554Z,7.80
2019-04-26T08:34:03.095Z,8.10
2019-04-26T08:34:38.052Z,7.78
2019-04-26T08:35:23.154Z,7.72
2019-04-26T08:35:56.937Z,8.50
2019-04-26T08:36:33.727Z,8.75
2019-04-26T08:37:19.006Z,7.70
2019-04-26T08:37:54.662Z,7.83
2019-04-26T08:38:28.553Z,9.03
2019-04-26T08:39:02.547Z,8.05
2019-04-26T08:39:45.698Z,8.65
2019-04-26T08:40:16.432Z,7.75
2019-04-26T08:40:48.359Z,7.95
2019-04-26T08:41:23.075Z,8.30
2019-04-26T08:41:58.446Z,8.70
2019-04-26T08:42:39.269Z,8.03
2019-04-26T08:43:30.748Z,8.13
2019-04-26T08:44:30.160Z,8.58
2019-04-26T08:45:21.994Z,8.68
2019-04-26T08:46:14.505Z,8.28
2019-04-26T08:47:23.729Z,9.00
2019-04-26T08:48:17.278Z,8.40
2019-04-26T08:49:06.393Z,9.20
2019-04-26T08:49:47.008Z,9.80
2019-04-26T08:50:46.053Z,8.85
2019-04-26T08:51:22.097Z,9.73
2019-04-26T08:51:57.554Z,9.35
2019-04-26T08:52:33.233Z,8.28
2019-04-26T08:53:07.922Z,8.38
2019-04-26T08:53:42.110Z,9.83
2019-04-26T08:54:20.859Z,8.68
2019-04-26T08:54:56.410Z,8.15
2019-04-26T08:55:31.287Z,7.37
2019-04-26T08:56:06.070Z,7.85
2019-04-26T08:56:42.225Z,9.13
2019-04-26T08:57:16.474Z,9.53
2019-04-26T08:57:51.543Z,8.55
2019-04-26T08:58:26.211Z,9.18
2019-04-26T08:59:01.633Z,8.35
2019-04-26T08:59:38.245Z,8.45
2019-04-26T09:00:25.659Z,10.10
2019-04-26T09:01:11.049Z,8.68
2019-04-26T09:02:03.986Z,8.68
2019-04-26T09:02:56.334Z,9.10
2019-04-26T09:03:50.673Z,8.60
2019-04-26T09:04:30.562Z,9.30
2019-04-26T09:05:13.194Z,9.10
2019-04-26T09:06:06.090Z,9.88
2019-04-26T09:07:05.362Z,7.65
2019-04-26T09:07:40.331Z,8.05
2019-04-26T09:08:15.293Z,7.97
2019-04-26T09:08:49.194Z,9.20
2019-04-26T09:09:25.825Z,8.10
2019-04-26T09:10:01.434Z,7.55
2019-04-26T09:10:39.346Z,7.78
2019-04-26T09:11:25.381Z,8.20
2019-04-26T09:11:59.112Z,7.50
2019-04-26T09:12:27.461Z,8.28
2019-04-26T09:13:01.980Z,7.47
2019-04-26T09:13:37.686Z,7.05
2019-04-26T09:14:11.571Z,8.55
2019-04-26T09:14:47.524Z,7.25
2019-04-26T09:15:25.504Z,7.95
2019-04-26T09:16:04.046Z,7.65
2019-04-26T09:16:49.642Z,7.87
2019-04-26T09:17:12.734Z,7.45
2019-04-26T09:17:46.299Z,6.53
2019-04-26T09:18:19.798Z,7.22
2019-04-26T09:18:57.241Z,7.08
2019-04-26T09:19:30.538Z,7.22
2019-04-26T09:20:07.995Z,7.58
2019-04-26T09:20:42.953Z,7.47
2019-04-26T09:21:17.468Z,7.28
2019-04-26T09:22:00.209Z,7.50